Time;durP1;ratioP1;P1;durP2;ratioP2;P2;SDS_P1;SDS_P2;PMS_P1;PMS_P2;Temp;Humidity;BMP_temperature;BMP_pressure;BME280_temperature;BME280_humidity;BME280_pressure;Samples;Min_cycle;Max_cycle;Signal;HPM_P1;HPM_P2
2024/01/10 00:00:00;;;;;;;52.15;24.38;;;2.90;68.30;;;;;;4959974;29;20024;-67
2024/01/10 00:02:26;;;;;;;55.83;25.90;;;2.90;68.30;;;;;;4959340;28;20043;-70
2024/01/10 00:04:51;;;;;;;45.83;22.80;;;2.90;68.30;;;;;;4959886;29;20067;-70
2024/01/10 00:07:17;;;;;;;47.17;23.08;;;2.90;68.20;;;;;;4959618;29;20046;-68
2024/01/10 00:09:45;;;;;;;49.75;25.95;;;2.90;68.40;;;;;;4960066;29;20027;-70
2024/01/10 00:12:12;;;;;;;38.15;22.35;;;2.90;69.00;;;;;;4959283;28;20042;-66
2024/01/10 00:14:38;;;;;;;54.60;25.13;;;2.90;68.40;;;;;;4959475;29;20462;-69
2024/01/10 00:17:04;;;;;;;53.33;25.25;;;2.90;68.20;;;;;;4959454;29;20042;-68
2024/01/10 00:19:31;;;;;;;48.65;24.10;;;2.90;68.20;;;;;;4959405;29;20070;-68
2024/01/10 00:21:56;;;;;;;46.88;23.05;;;2.90;68.10;;;;;;4959242;28;20438;-66
2024/01/10 00:24:22;;;;;;;50.47;24.85;;;2.90;68.40;;;;;;4959313;29;20074;-68
2024/01/10 00:26:48;;;;;;;48.30;24.20;;;2.80;68.90;;;;;;4958873;28;20023;-68
2024/01/10 00:29:14;;;;;;;46.47;23.55;;;2.80;68.60;;;;;;4959227;29;20078;-69
2024/01/10 00:31:41;;;;;;;59.92;27.65;;;2.80;68.60;;;;;;4959118;28;20101;-67
2024/01/10 00:34:07;;;;;;;56.72;26.90;;;2.70;68.60;;;;;;4958244;29;20027;-72
2024/01/10 00:36:33;;;;;;;57.50;28.77;;;2.70;68.80;;;;;;4959073;29;20038;-66
2024/01/10 00:38:59;;;;;;;48.72;25.15;;;2.60;69.10;;;;;;4959021;29;20023;-67
2024/01/10 00:41:25;;;;;;;55.83;26.05;;;2.60;69.20;;;;;;4959211;28;20023;-68
2024/01/10 00:43:51;;;;;;;51.53;27.08;;;2.60;69.60;;;;;;4959363;29;20086;-70
2024/01/10 00:46:17;;;;;;;47.92;23.17;;;2.60;69.80;;;;;;4959436;29;20349;-66
2024/01/10 00:48:42;;;;;;;52.75;24.95;;;2.60;69.60;;;;;;4958888;29;20104;-67
2024/01/10 00:51:09;;;;;;;51.47;25.25;;;2.60;69.30;;;;;;4958759;28;20077;-69
2024/01/10 00:53:35;;;;;;;49.97;24.48;;;2.60;69.40;;;;;;4958794;29;20027;-67
2024/01/10 00:56:01;;;;;;;41.60;22.42;;;2.60;69.40;;;;;;4958733;29;20351;-65
2024/01/10 00:58:27;;;;;;;48.08;24.30;;;2.60;69.40;;;;;;4958779;29;20034;-69
2024/01/10 01:00:53;;;;;;;45.97;23.55;;;2.60;69.20;;;;;;4958637;29;20408;-66
2024/01/10 01:03:19;;;;;;;43.85;22.85;;;2.60;69.50;;;;;;4958083;28;20461;-65
2024/01/10 01:05:45;;;;;;;46.25;22.80;;;2.60;69.80;;;;;;4958769;29;20059;-66
2024/01/10 01:08:11;;;;;;;47.85;24.55;;;2.60;69.70;;;;;;4958727;29;20079;-67
2024/01/10 01:10:37;;;;;;;46.35;24.52;;;2.60;69.40;;;;;;4958469;29;20028;-68
2024/01/10 01:13:03;;;;;;;50.50;23.35;;;2.60;69.70;;;;;;4958327;28;20027;-64
2024/01/10 01:15:29;;;;;;;45.67;23.48;;;2.60;69.60;;;;;;4958892;29;20046;-67
2024/01/10 01:17:55;;;;;;;45.72;23.00;;;2.60;69.70;;;;;;4958850;29;20027;-69
2024/01/10 01:20:21;;;;;;;41.78;21.80;;;2.60;69.90;;;;;;4958209;29;20544;-65
2024/01/10 01:22:46;;;;;;;46.38;24.42;;;2.60;69.60;;;;;;4958090;28;20102;-71
2024/01/10 01:25:12;;;;;;;41.05;22.48;;;2.60;70.00;;;;;;4958662;29;20114;-71
2024/01/10 01:27:39;;;;;;;39.55;21.08;;;2.50;69.60;;;;;;4958639;29;20034;-67
2024/01/10 01:30:05;;;;;;;38.97;20.75;;;2.40;69.40;;;;;;4958603;29;20417;-67
2024/01/10 01:32:31;;;;;;;39.17;20.17;;;2.30;69.10;;;;;;4957974;28;20076;-69
2024/01/10 01:34:57;;;;;;;36.22;19.58;;;2.20;69.40;;;;;;4958759;29;20035;-67
2024/01/10 01:37:23;;;;;;;35.88;19.40;;;2.10;69.70;;;;;;4957002;29;20404;-66
2024/01/10 01:39:49;;;;;;;34.15;16.92;;;2.00;70.00;;;;;;4957018;28;20035;-66
2024/01/10 01:42:15;;;;;;;32.30;16.23;;;2.00;70.60;;;;;;4958000;28;20031;-67
2024/01/10 01:44:41;;;;;;;30.98;15.10;;;2.00;70.30;;;;;;4957844;28;20024;-69
2024/01/10 01:47:07;;;;;;;31.45;16.75;;;2.00;70.40;;;;;;4958308;29;20107;-69
2024/01/10 01:49:33;;;;;;;29.77;15.77;;;2.10;70.70;;;;;;4958000;29;20074;-68
2024/01/10 01:52:00;;;;;;;27.20;14.25;;;2.10;70.40;;;;;;4957821;28;20024;-67
2024/01/10 01:54:26;;;;;;;26.80;13.52;;;2.20;70.30;;;;;;4957932;29;20058;-68
2024/01/10 01:56:53;;;;;;;29.38;15.63;;;2.30;70.30;;;;;;4958096;28;20030;-68
2024/01/10 01:59:19;;;;;;;30.05;13.27;;;2.40;70.10;;;;;;4957806;29;20464;-69
2024/01/10 02:01:45;;;;;;;26.00;13.85;;;2.40;69.70;;;;;;4957356;28;20077;-69
2024/01/10 02:04:12;;;;;;;30.50;14.43;;;2.40;70.00;;;;;;4957773;29;20028;-65
2024/01/10 02:06:38;;;;;;;23.33;12.32;;;2.40;69.70;;;;;;4957718;29;20027;-67
2024/01/10 02:09:04;;;;;;;25.45;13.73;;;2.50;69.30;;;;;;4957728;28;20394;-68
2024/01/10 02:11:30;;;;;;;28.20;13.25;;;2.50;69.50;;;;;;4957342;28;20443;-68
2024/01/10 02:13:58;;;;;;;28.58;14.10;;;2.50;69.20;;;;;;4957320;29;20043;-64
2024/01/10 02:16:24;;;;;;;26.42;13.00;;;2.50;69.40;;;;;;4957609;29;20464;-71
2024/01/10 02:18:50;;;;;;;26.05;12.32;;;2.50;69.40;;;;;;4957561;29;20453;-67
2024/01/10 02:21:20;;;;;;;24.30;12.63;;;2.50;69.40;;;;;;4957443;28;20046;-67
2024/01/10 02:23:46;;;;;;;24.23;11.82;;;2.60;69.20;;;;;;4957654;29;20047;-65
2024/01/10 02:26:12;;;;;;;23.10;11.27;;;2.60;69.10;;;;;;4957703;29;20023;-69
2024/01/10 02:28:38;;;;;;;22.60;11.38;;;2.60;68.80;;;;;;4957166;29;20043;-68
2024/01/10 02:31:04;;;;;;;23.27;10.27;;;2.70;68.30;;;;;;4957588;28;20035;-68
2024/01/10 02:33:30;;;;;;;19.45;9.20;;;2.70;68.20;;;;;;4957396;29;20058;-65
2024/01/10 02:35:56;;;;;;;21.75;10.73;;;2.80;67.80;;;;;;4957131;29;20023;-66
2024/01/10 02:38:23;;;;;;;19.00;8.93;;;2.80;67.80;;;;;;4957595;29;20350;-69
2024/01/10 02:40:49;;;;;;;22.98;10.95;;;2.80;67.90;;;;;;4957016;29;20035;-69
2024/01/10 02:43:15;;;;;;;18.88;10.20;;;2.90;68.00;;;;;;4957414;28;20031;-70
2024/01/10 02:45:42;;;;;;;19.63;9.73;;;2.90;67.50;;;;;;4957025;29;20491;-69
2024/01/10 02:48:08;;;;;;;20.63;10.05;;;3.00;67.80;;;;;;4957491;29;20099;-67
2024/01/10 02:50:34;;;;;;;20.05;9.93;;;3.00;67.00;;;;;;4958941;28;20102;-67
2024/01/10 02:53:00;;;;;;;19.40;9.60;;;2.90;67.20;;;;;;4960943;28;20105;-65
2024/01/10 02:55:25;;;;;;;20.73;9.45;;;2.90;67.50;;;;;;4961411;29;20413;-69
2024/01/10 02:57:51;;;;;;;20.13;9.82;;;2.90;67.60;;;;;;4960913;29;20027;-67
2024/01/10 03:00:17;;;;;;;16.08;8.30;;;2.90;67.50;;;;;;4960860;29;20023;-69
2024/01/10 03:02:43;;;;;;;18.42;9.05;;;2.90;67.60;;;;;;4960584;28;20102;-64
2024/01/10 03:05:09;;;;;;;19.13;8.52;;;2.90;67.70;;;;;;4961009;29;20047;-66
2024/01/10 03:07:35;;;;;;;20.98;9.93;;;2.90;67.70;;;;;;4960946;29;20058;-65
2024/01/10 03:10:01;;;;;;;17.25;9.20;;;2.90;67.80;;;;;;4961160;29;20111;-67
2024/01/10 03:12:27;;;;;;;15.73;8.13;;;3.00;67.70;;;;;;4959619;28;20046;-65
2024/01/10 03:14:53;;;;;;;16.42;8.25;;;2.90;67.80;;;;;;4960556;29;20031;-65
2024/01/10 03:17:19;;;;;;;16.13;8.18;;;3.00;67.70;;;;;;4960764;29;20046;-66
2024/01/10 03:19:45;;;;;;;18.13;8.77;;;3.00;67.60;;;;;;4960747;29;20042;-68
2024/01/10 03:22:12;;;;;;;21.17;9.43;;;3.00;67.40;;;;;;4960345;28;20031;-67
2024/01/10 03:24:38;;;;;;;21.50;9.02;;;3.10;67.60;;;;;;4960365;29;20034;-65
2024/01/10 03:27:05;;;;;;;19.10;8.32;;;3.00;67.40;;;;;;4960636;29;20023;-65
2024/01/10 03:29:31;;;;;;;18.33;9.32;;;2.90;67.20;;;;;;4960239;29;20034;-70
2024/01/10 03:31:57;;;;;;;16.77;8.57;;;2.90;67.30;;;;;;4960369;28;20023;-66
2024/01/10 03:34:22;;;;;;;16.15;8.32;;;2.90;67.20;;;;;;4960207;29;20027;-67
2024/01/10 03:36:49;;;;;;;14.80;8.18;;;2.90;67.40;;;;;;4960445;29;20031;-67
2024/01/10 03:39:15;;;;;;;15.90;8.75;;;2.90;67.40;;;;;;4960663;29;20030;-67
2024/01/10 03:41:41;;;;;;;17.40;9.02;;;2.90;67.50;;;;;;4960488;28;20027;-65
2024/01/10 03:44:07;;;;;;;20.10;8.88;;;2.80;67.70;;;;;;4960077;29;20028;-70
2024/01/10 03:46:33;;;;;;;16.10;8.00;;;2.80;67.60;;;;;;4959974;29;20027;-66
2024/01/10 03:48:59;;;;;;;20.73;9.38;;;2.80;67.60;;;;;;4960162;29;20023;-69
2024/01/10 03:51:25;;;;;;;18.67;8.05;;;2.80;67.60;;;;;;4960103;28;20043;-71
2024/01/10 03:53:51;;;;;;;18.85;8.80;;;2.80;67.50;;;;;;4959870;29;20027;-67
2024/01/10 03:56:17;;;;;;;17.27;8.15;;;2.80;67.80;;;;;;4960310;29;20038;-67
2024/01/10 03:58:43;;;;;;;20.63;8.50;;;2.80;67.90;;;;;;4959779;29;20031;-66
2024/01/10 04:01:09;;;;;;;20.05;8.98;;;2.80;67.70;;;;;;4959351;28;20110;-65
2024/01/10 04:03:35;;;;;;;21.80;9.13;;;2.80;67.80;;;;;;4958864;29;20051;-66
2024/01/10 04:06:02;;;;;;;18.55;8.73;;;2.80;67.70;;;;;;4959659;29;20397;-69
2024/01/10 04:08:28;;;;;;;21.48;10.30;;;2.70;67.70;;;;;;4958643;29;20031;-67
2024/01/10 04:10:54;;;;;;;26.65;10.60;;;2.70;67.80;;;;;;4959830;29;20023;-65
2024/01/10 04:13:20;;;;;;;20.80;9.75;;;2.70;68.30;;;;;;4959979;28;20099;-69
2024/01/10 04:15:47;;;;;;;21.80;9.52;;;2.60;68.30;;;;;;4959472;29;20035;-67
2024/01/10 04:18:12;;;;;;;19.33;9.13;;;2.60;68.40;;;;;;4959669;29;20027;-65
2024/01/10 04:20:38;;;;;;;19.15;9.05;;;2.70;68.40;;;;;;4959394;29;20039;-65
2024/01/10 04:23:04;;;;;;;21.65;9.95;;;2.60;68.30;;;;;;4959311;28;20035;-66
2024/01/10 04:25:30;;;;;;;20.15;10.43;;;2.70;68.70;;;;;;4959338;29;20360;-70
2024/01/10 04:27:59;;;;;;;19.10;9.95;;;2.60;68.20;;;;;;4959788;29;20082;-65
2024/01/10 04:30:25;;;;;;;20.88;9.68;;;2.60;68.30;;;;;;4959242;29;20027;-71
2024/01/10 04:32:50;;;;;;;20.42;9.73;;;2.60;68.50;;;;;;4959125;28;20028;-66
2024/01/10 04:35:16;;;;;;;23.00;11.02;;;2.60;68.60;;;;;;4959644;29;20062;-68
2024/01/10 04:37:42;;;;;;;22.30;11.00;;;2.60;68.60;;;;;;4959623;29;20032;-69
2024/01/10 04:40:09;;;;;;;19.90;10.73;;;2.60;68.90;;;;;;4959057;29;20110;-66
2024/01/10 04:42:35;;;;;;;25.20;12.18;;;2.60;69.10;;;;;;4959106;28;20023;-66
2024/01/10 04:45:00;;;;;;;27.70;12.38;;;2.60;68.60;;;;;;4958996;29;20024;-67
2024/01/10 04:47:26;;;;;;;23.10;12.30;;;2.60;68.40;;;;;;4959204;29;20026;-69
2024/01/10 04:49:52;;;;;;;20.75;11.60;;;2.60;68.60;;;;;;4958895;29;20109;-69
2024/01/10 04:52:18;;;;;;;25.08;12.48;;;2.60;68.60;;;;;;4958801;28;20039;-70
2024/01/10 04:54:44;;;;;;;21.08;11.68;;;2.50;68.60;;;;;;4959022;29;20034;-69
2024/01/10 04:57:10;;;;;;;27.02;13.55;;;2.50;68.80;;;;;;4959007;29;20035;-67
2024/01/10 04:59:36;;;;;;;27.92;12.85;;;2.50;68.60;;;;;;4958957;29;20027;-68
2024/01/10 05:02:02;;;;;;;27.58;12.70;;;2.40;69.00;;;;;;4958563;28;20414;-69
2024/01/10 05:04:28;;;;;;;23.92;11.75;;;2.40;69.20;;;;;;4959174;29;20042;-69
2024/01/10 05:06:54;;;;;;;22.08;12.07;;;2.40;69.20;;;;;;4959081;29;20045;-71
2024/01/10 05:09:20;;;;;;;24.77;9.95;;;2.40;69.00;;;;;;4959031;29;20019;-67
2024/01/10 05:11:51;;;;;;;22.45;13.50;;;2.40;69.40;;;;;;4958421;28;20418;-71
2024/01/10 05:14:21;;;;;;;21.60;11.05;;;2.40;69.30;;;;;;4957325;28;20030;-65
2024/01/10 05:16:50;;;;;;;15.57;9.07;;;2.50;69.20;;;;;;4958339;28;20115;-67
2024/01/10 05:19:16;;;;;;;19.08;9.63;;;2.50;69.20;;;;;;4958288;29;20082;-68
2024/01/10 05:21:42;;;;;;;19.27;9.98;;;2.50;69.00;;;;;;4958215;28;20360;-70
2024/01/10 05:24:08;;;;;;;17.83;8.88;;;2.60;69.60;;;;;;4958194;29;20023;-68
2024/01/10 05:26:34;;;;;;;18.20;10.15;;;2.70;69.50;;;;;;4958731;29;20488;-67
2024/01/10 05:29:00;;;;;;;19.23;9.25;;;2.70;69.30;;;;;;4958730;29;20454;-65
2024/01/10 05:31:26;;;;;;;17.95;8.82;;;2.70;69.00;;;;;;4958554;28;20038;-65
2024/01/10 05:33:53;;;;;;;19.40;9.13;;;2.80;69.00;;;;;;4958706;29;20027;-70
2024/01/10 05:36:23;;;;;;;18.15;9.45;;;2.80;68.80;;;;;;4957967;29;20035;-66
2024/01/10 05:38:48;;;;;;;17.75;9.35;;;2.80;68.80;;;;;;4958452;29;20031;-67
2024/01/10 05:41:14;;;;;;;18.50;9.32;;;2.90;68.70;;;;;;4958353;28;20031;-69
2024/01/10 05:43:41;;;;;;;17.10;9.48;;;2.90;68.60;;;;;;4957839;29;20027;-66
2024/01/10 05:46:07;;;;;;;19.38;9.77;;;2.90;68.30;;;;;;4958060;29;20043;-65
2024/01/10 05:48:33;;;;;;;17.67;9.73;;;2.90;68.40;;;;;;4958406;29;20477;-68
2024/01/10 05:50:59;;;;;;;21.15;10.57;;;2.80;68.40;;;;;;4957708;29;20139;-69
2024/01/10 05:53:25;;;;;;;17.10;10.77;;;2.80;68.60;;;;;;4957870;28;20023;-68
2024/01/10 05:55:51;;;;;;;18.98;9.73;;;2.80;68.60;;;;;;4957506;29;20035;-67
2024/01/10 05:58:17;;;;;;;18.30;9.88;;;2.90;68.90;;;;;;4957834;29;20087;-68
2024/01/10 06:03:09;;;;;;;20.52;10.95;;;2.90;68.60;;;;;;4957311;28;20105;-70
2024/01/10 06:05:35;;;;;;;21.17;12.07;;;2.90;68.60;;;;;;4958246;29;20106;-71
2024/01/10 06:08:03;;;;;;;23.70;12.65;;;2.90;68.80;;;;;;4958031;29;20078;-68
2024/01/10 06:10:30;;;;;;;24.08;13.18;;;2.90;68.50;;;;;;4957763;29;20020;-67
2024/01/10 06:12:56;;;;;;;20.75;10.93;;;2.90;68.70;;;;;;4957380;28;20082;-69
2024/01/10 06:15:22;;;;;;;21.23;12.43;;;2.90;68.60;;;;;;4957316;29;20520;-70
2024/01/10 06:17:49;;;;;;;25.98;11.98;;;3.00;68.60;;;;;;4957336;29;20039;-68
2024/01/10 06:20:15;;;;;;;23.58;11.07;;;2.90;68.40;;;;;;4957553;29;20031;-71
2024/01/10 06:22:41;;;;;;;22.88;11.80;;;2.90;68.50;;;;;;4957257;28;20481;-69
2024/01/10 06:25:07;;;;;;;24.23;11.15;;;2.90;68.40;;;;;;4956750;28;20055;-70
2024/01/10 06:27:33;;;;;;;23.92;11.27;;;2.90;68.30;;;;;;4957510;29;20327;-68
2024/01/10 06:29:59;;;;;;;22.00;11.90;;;2.90;68.60;;;;;;4957197;29;20031;-66
2024/01/10 06:32:25;;;;;;;21.23;12.07;;;2.90;68.60;;;;;;4956097;28;20050;-69
2024/01/10 06:34:51;;;;;;;24.08;11.45;;;2.90;68.50;;;;;;4957653;28;20050;-72
2024/01/10 06:37:17;;;;;;;19.95;10.77;;;2.80;68.60;;;;;;4957136;29;20365;-66
2024/01/10 06:39:43;;;;;;;17.55;9.32;;;2.80;68.60;;;;;;4957081;29;20038;-67
2024/01/10 06:42:11;;;;;;;20.10;10.75;;;2.80;68.60;;;;;;4957090;28;20020;-72
2024/01/10 06:44:37;;;;;;;19.10;11.13;;;2.80;68.80;;;;;;4956965;29;20473;-67
2024/01/10 06:47:04;;;;;;;22.80;10.50;;;2.80;69.00;;;;;;4957207;28;20081;-66
2024/01/10 06:49:30;;;;;;;20.98;10.75;;;2.80;69.30;;;;;;4956979;29;20359;-67
2024/01/10 06:51:55;;;;;;;23.52;11.27;;;2.80;69.00;;;;;;4956091;28;20441;-70
2024/01/10 06:54:21;;;;;;;25.52;12.38;;;2.80;69.20;;;;;;4955879;29;20074;-69
2024/01/10 06:56:47;;;;;;;26.15;11.45;;;2.90;69.10;;;;;;4956112;29;20027;-66
2024/01/10 06:59:21;;;;;;;26.75;11.35;;;2.90;69.00;;;;;;4956918;29;20457;-69
2024/01/10 07:01:52;;;;;;;23.23;11.73;;;2.90;68.90;;;;;;4956450;28;20039;-67
2024/01/10 07:04:18;;;;;;;28.65;12.27;;;3.00;68.90;;;;;;4957060;29;20028;-71
2024/01/10 07:06:44;;;;;;;22.10;10.73;;;3.00;68.60;;;;;;4956556;29;20027;-71
2024/01/10 07:09:11;;;;;;;19.85;10.80;;;3.00;68.50;;;;;;4957094;29;20070;-72
2024/01/10 07:11:37;;;;;;;22.23;11.23;;;3.00;68.70;;;;;;4956703;28;20023;-67
2024/01/10 07:14:03;;;;;;;23.90;11.25;;;3.00;68.60;;;;;;4957044;29;20042;-66
2024/01/10 07:16:29;;;;;;;27.77;11.88;;;2.90;68.50;;;;;;5233233;23;20432;-67
2024/01/10 07:18:55;;;;;;;27.73;12.43;;;2.90;68.40;;;;;;4955587;29;20031;-68
2024/01/10 07:21:21;;;;;;;31.85;13.45;;;3.00;68.50;;;;;;4956743;29;20031;-68
2024/01/10 07:23:46;;;;;;;37.00;15.52;;;3.00;68.90;;;;;;4956916;28;20103;-67
2024/01/10 07:26:16;;;;;;;35.00;16.83;;;3.00;68.60;;;;;;4956670;28;20027;-73
2024/01/10 07:28:41;;;;;;;36.38;16.58;;;3.00;68.50;;;;;;4956890;29;20147;-67
2024/01/10 07:31:07;;;;;;;36.67;16.65;;;3.00;68.70;;;;;;4956611;29;20032;-64
2024/01/10 07:33:33;;;;;;;41.05;18.73;;;3.00;68.80;;;;;;5601046;23;20017;-65
2024/01/10 07:36:01;;;;;;;32.92;15.27;;;3.10;68.70;;;;;;4974046;28;20424;-67
2024/01/10 07:38:26;;;;;;;36.63;16.92;;;3.10;68.50;;;;;;4979782;28;20114;-64
2024/01/10 07:40:52;;;;;;;39.38;16.80;;;3.10;68.50;;;;;;4979484;28;20102;-70
2024/01/10 07:43:18;;;;;;;41.03;18.45;;;3.20;68.50;;;;;;4979285;28;20451;-64
2024/01/10 07:45:44;;;;;;;37.40;17.73;;;3.20;68.70;;;;;;4979571;28;20026;-68
2024/01/10 07:48:11;;;;;;;38.65;17.63;;;3.20;68.70;;;;;;4979820;28;20098;-66
2024/01/10 07:50:36;;;;;;;39.08;18.02;;;3.20;68.70;;;;;;4979484;28;20065;-69
2024/01/10 07:53:02;;;;;;;44.35;19.17;;;3.20;69.10;;;;;;4979457;28;20050;-68
2024/01/10 07:55:29;;;;;;;42.40;18.00;;;3.20;69.10;;;;;;4978885;28;20121;-70
2024/01/10 07:57:55;;;;;;;44.85;18.48;;;3.30;69.20;;;;;;4979551;28;20519;-69
2024/01/10 08:00:22;;;;;;;44.25;19.58;;;3.30;69.40;;;;;;4979297;28;20027;-69
2024/01/10 08:02:50;;;;;;;44.40;19.60;;;3.30;69.20;;;;;;4978741;28;20026;-68
2024/01/10 08:05:16;;;;;;;39.40;19.10;;;3.30;69.10;;;;;;4979006;28;20034;-65
2024/01/10 08:07:42;;;;;;;45.20;20.55;;;3.40;69.00;;;;;;4979135;28;20069;-68
2024/01/10 08:10:09;;;;;;;40.38;19.67;;;3.50;69.20;;;;;;4978823;28;20360;-66
2024/01/10 08:12:36;;;;;;;45.80;20.63;;;3.60;69.00;;;;;;4978328;28;20027;-70
2024/01/10 08:15:02;;;;;;;46.15;20.23;;;3.60;69.10;;;;;;4977769;28;20031;-68
2024/01/10 08:17:28;;;;;;;44.85;19.45;;;3.70;68.60;;;;;;4978909;28;20344;-66
2024/01/10 08:19:54;;;;;;;44.78;21.17;;;3.80;68.90;;;;;;4978933;28;20437;-67
2024/01/10 08:22:20;;;;;;;39.25;20.88;;;3.80;68.80;;;;;;4978989;28;20019;-66
2024/01/10 08:24:46;;;;;;;39.72;20.67;;;3.90;68.60;;;;;;4978480;28;20080;-65
2024/01/10 08:27:13;;;;;;;34.22;16.45;;;3.90;68.00;;;;;;4978456;28;20056;-69
2024/01/10 08:29:38;;;;;;;32.58;16.80;;;4.10;67.50;;;;;;4977460;28;20027;-68
2024/01/10 08:32:05;;;;;;;35.35;18.27;;;4.20;67.30;;;;;;5267081;23;20388;-67
2024/01/10 08:34:30;;;;;;;31.75;16.25;;;4.20;67.30;;;;;;4963236;28;20031;-70
2024/01/10 08:36:56;;;;;;;31.98;17.23;;;4.40;67.00;;;;;;4958606;28;20448;-67
2024/01/10 08:39:24;;;;;;;34.40;16.45;;;4.40;66.00;;;;;;4958212;28;20031;-67
2024/01/10 08:41:50;;;;;;;34.35;16.08;;;4.50;65.90;;;;;;4956846;28;20032;-66
2024/01/10 08:44:16;;;;;;;27.83;14.38;;;4.60;64.30;;;;;;4956828;28;20038;-66
2024/01/10 08:46:41;;;;;;;29.00;14.20;;;4.60;64.30;;;;;;4956794;28;20097;-67
2024/01/10 08:49:07;;;;;;;21.90;11.75;;;4.70;64.20;;;;;;4956258;28;20028;-65
2024/01/10 08:51:33;;;;;;;23.13;11.00;;;4.70;63.50;;;;;;4956736;28;20330;-70
2024/01/10 08:54:00;;;;;;;21.35;9.95;;;4.80;64.10;;;;;;4956614;28;20083;-71
2024/01/10 08:56:26;;;;;;;23.05;11.80;;;4.90;64.00;;;;;;4955822;29;20042;-69
2024/01/10 08:58:52;;;;;;;21.52;10.77;;;4.90;63.60;;;;;;4956758;28;20368;-68
2024/01/10 09:01:18;;;;;;;21.20;10.32;;;5.00;63.00;;;;;;4956790;28;20438;-68
2024/01/10 09:03:45;;;;;;;18.63;9.68;;;5.10;62.90;;;;;;5243705;23;20051;-69
2024/01/10 09:06:12;;;;;;;17.75;9.68;;;5.10;61.20;;;;;;4977796;28;20076;-68
2024/01/10 09:08:39;;;;;;;18.17;9.48;;;5.20;60.40;;;;;;4977657;28;20038;-70
2024/01/10 09:11:05;;;;;;;19.73;8.93;;;5.20;60.00;;;;;;4977983;28;20158;-68
2024/01/10 09:13:34;;;;;;;20.85;9.13;;;5.30;60.50;;;;;;4977831;28;20082;-72
2024/01/10 09:16:00;;;;;;;18.95;9.40;;;5.40;60.10;;;;;;4978000;28;20033;-66
2024/01/10 09:18:27;;;;;;;18.30;9.20;;;5.40;58.90;;;;;;4978222;28;20109;-68
2024/01/10 09:20:53;;;;;;;17.65;9.18;;;5.50;57.70;;;;;;4977484;28;20019;-69
2024/01/10 09:23:20;;;;;;;17.58;8.45;;;5.40;56.50;;;;;;4977740;28;20045;-67
2024/01/10 09:25:46;;;;;;;17.00;8.88;;;5.50;57.30;;;;;;4976632;28;20055;-70
2024/01/10 09:28:12;;;;;;;19.02;9.40;;;5.50;57.30;;;;;;4977807;28;20023;-71
2024/01/10 09:30:38;;;;;;;16.23;8.70;;;5.60;57.50;;;;;;5249655;23;20140;-68
2024/01/10 09:33:04;;;;;;;20.17;9.13;;;5.60;58.50;;;;;;4996917;28;20101;-66
2024/01/10 09:35:31;;;;;;;19.75;8.98;;;5.70;56.80;;;;;;4996252;28;20472;-66
2024/01/10 09:37:56;;;;;;;16.48;8.05;;;5.70;56.60;;;;;;4997042;28;20028;-66
2024/01/10 09:40:26;;;;;;;14.45;7.85;;;5.70;56.30;;;;;;4995674;28;20026;-65
2024/01/10 09:42:52;;;;;;;13.88;7.60;;;5.70;53.80;;;;;;4996580;28;20471;-68
2024/01/10 09:45:19;;;;;;;14.13;7.15;;;5.70;54.00;;;;;;4996906;28;20395;-71
2024/01/10 09:47:50;;;;;;;16.92;8.13;;;5.60;54.20;;;;;;4996814;28;20119;-71
2024/01/10 09:50:16;;;;;;;14.10;7.13;;;5.60;53.90;;;;;;4996982;28;20387;-65
2024/01/10 09:52:51;;;;;;;14.80;7.30;;;5.60;51.60;;;;;;4996489;28;20022;-70
2024/01/10 09:55:20;;;;;;;13.75;7.05;;;5.60;53.10;;;;;;4996320;28;20049;-66
2024/01/10 09:57:46;;;;;;;16.83;7.35;;;5.70;53.30;;;;;;4996425;28;20027;-66
2024/01/10 10:00:15;;;;;;;19.17;7.90;;;5.60;50.80;;;;;;4995758;28;20105;-70
2024/01/10 10:02:42;;;;;;;12.60;6.85;;;5.60;48.70;;;;;;4996226;28;20049;-68
2024/01/10 10:05:15;;;;;;;14.65;7.57;;;5.60;51.20;;;;;;4996170;28;20352;-67
2024/01/10 10:07:53;;;;;;;16.83;6.82;;;5.50;49.70;;;;;;4996524;28;20463;-69
2024/01/10 10:10:19;;;;;;;13.07;6.90;;;5.60;49.80;;;;;;4996404;28;20084;-69
2024/01/10 10:12:47;;;;;;;16.08;6.90;;;5.60;48.80;;;;;;4996070;28;20367;-68
2024/01/10 10:15:15;;;;;;;15.55;7.50;;;5.60;49.70;;;;;;4996032;28;20035;-69
2024/01/10 10:17:46;;;;;;;14.60;6.93;;;5.70;49.30;;;;;;4996101;28;20464;-67
2024/01/10 10:20:23;;;;;;;16.73;7.53;;;5.80;50.00;;;;;;4996270;28;20041;-67
2024/01/10 10:23:02;;;;;;;16.15;7.47;;;5.80;48.80;;;;;;4996242;28;20030;-68
2024/01/10 10:25:33;;;;;;;15.75;7.63;;;5.90;49.30;;;;;;4996233;28;20026;-68
2024/01/10 10:28:00;;;;;;;15.68;7.13;;;5.90;49.60;;;;;;4995939;28;20026;-69
2024/01/10 10:30:28;;;;;;;17.40;8.02;;;5.90;47.40;;;;;;4995902;28;20133;-65
2024/01/10 10:32:55;;;;;;;14.25;7.60;;;6.00;49.10;;;;;;4995892;28;20464;-65
2024/01/10 10:35:21;;;;;;;16.38;8.00;;;6.00;48.50;;;;;;4996149;28;20035;-66
2024/01/10 10:37:57;;;;;;;15.55;7.80;;;6.10;48.00;;;;;;4996110;28;20050;-66
2024/01/10 10:40:23;;;;;;;13.70;6.60;;;6.00;47.90;;;;;;4996315;28;20384;-67
2024/01/10 10:42:55;;;;;;;15.70;7.40;;;6.00;48.00;;;;;;4995725;28;20456;-68
2024/01/10 10:45:26;;;;;;;13.20;6.70;;;6.10;47.00;;;;;;4996074;28;20036;-66
2024/01/10 10:47:59;;;;;;;15.52;6.82;;;6.20;48.90;;;;;;4996717;28;20042;-66
2024/01/10 10:50:33;;;;;;;13.52;6.55;;;6.20;47.60;;;;;;4995694;28;20030;-69
2024/01/10 10:53:00;;;;;;;;;;;6.20;47.50;;;;;;4996650;28;20328;-70
2024/01/10 10:55:27;;;;;;;14.23;6.35;;;6.20;45.70;;;;;;4995933;28;20000;-67
2024/01/10 10:57:55;;;;;;;14.65;6.45;;;6.20;46.20;;;;;;4995895;28;20034;-69
2024/01/10 11:00:27;;;;;;;11.48;6.15;;;6.10;46.10;;;;;;4995824;28;20023;-65
2024/01/10 11:02:57;;;;;;;12.52;5.95;;;6.10;44.90;;;;;;4995826;28;20073;-69
2024/01/10 11:05:24;;;;;;;12.68;6.25;;;6.20;46.80;;;;;;4995480;28;20027;-65
2024/01/10 11:07:52;;;;;;;13.35;6.65;;;6.20;45.90;;;;;;4996079;28;20033;-67
2024/01/10 11:10:20;;;;;;;12.48;6.90;;;6.20;44.90;;;;;;4995725;28;20026;-66
2024/01/10 11:13:10;;;;;;;11.30;6.25;;;6.20;43.00;;;;;;4999362;28;20026;-67
2024/01/10 11:15:54;;;;;;;14.70;6.95;;;6.10;45.00;;;;;;4999654;28;20018;-70
2024/01/10 11:18:23;;;;;;;12.88;6.30;;;6.00;45.20;;;;;;4999916;28;20105;-66
2024/01/10 11:21:14;;;;;;;13.48;6.35;;;5.90;44.10;;;;;;4999252;28;20035;-68
2024/01/10 11:23:49;;;;;;;11.75;6.10;;;6.00;44.90;;;;;;4999493;28;20046;-65
2024/01/10 11:26:16;;;;;;;13.68;6.82;;;5.90;44.20;;;;;;4999200;28;20105;-68
2024/01/10 11:28:42;;;;;;;15.73;6.97;;;5.80;45.30;;;;;;4999125;28;20026;-66
2024/01/10 11:31:08;;;;;;;15.10;6.70;;;5.80;44.20;;;;;;4998975;28;20038;-67
2024/01/10 11:33:40;;;;;;;14.15;7.35;;;5.80;45.10;;;;;;4999417;28;20494;-69
2024/01/10 11:36:14;;;;;;;12.98;6.38;;;5.90;45.10;;;;;;4999400;28;20031;-65
2024/01/10 11:38:56;;;;;;;14.25;6.13;;;5.90;45.80;;;;;;4999051;28;20034;-68
2024/01/10 11:41:25;;;;;;;11.95;6.28;;;6.00;45.40;;;;;;4999483;28;20038;-67
2024/01/10 11:44:09;;;;;;;14.35;6.63;;;6.10;43.90;;;;;;4999232;28;20034;-67
2024/01/10 11:46:43;;;;;;;13.00;6.65;;;6.00;43.30;;;;;;4999135;28;20042;-65
2024/01/10 11:49:11;;;;;;;13.15;6.60;;;5.80;44.50;;;;;;4999197;28;20027;-66
2024/01/10 11:51:38;;;;;;;13.07;6.80;;;5.70;44.40;;;;;;4998990;28;20033;-68
2024/01/10 11:54:05;;;;;;;14.15;6.72;;;5.70;44.40;;;;;;4998815;28;20053;-70
2024/01/10 11:59:08;;;;;;;14.57;6.40;;;5.90;45.60;;;;;;5252422;23;20047;-68
2024/01/10 12:01:34;;;;;;;13.05;6.40;;;5.90;45.80;;;;;;4979200;28;20437;-70
2024/01/10 12:04:00;;;;;;;14.68;7.20;;;6.00;44.20;;;;;;4979014;28;20030;-68
2024/01/10 12:06:26;;;;;;;14.13;6.55;;;6.10;43.70;;;;;;4979355;28;20030;-65
2024/01/10 12:08:52;;;;;;;13.02;6.20;;;6.10;44.20;;;;;;4979254;28;20023;-69
2024/01/10 12:11:18;;;;;;;14.07;6.50;;;6.20;44.80;;;;;;4979529;28;20113;-68
2024/01/10 12:13:44;;;;;;;11.52;5.80;;;6.20;45.30;;;;;;4978906;28;20023;-66
2024/01/10 12:16:13;;;;;;;12.32;6.40;;;6.30;44.10;;;;;;4978041;28;20464;-70
2024/01/10 12:18:40;;;;;;;14.38;6.65;;;6.30;45.00;;;;;;4979009;28;20045;-68
2024/01/10 12:21:08;;;;;;;13.38;7.70;;;6.40;44.70;;;;;;4979030;28;20352;-66
2024/01/10 12:23:38;;;;;;;11.93;6.40;;;6.40;44.00;;;;;;4977983;28;20117;-67
2024/01/10 12:26:12;;;;;;;12.20;5.78;;;6.50;44.70;;;;;;4979272;28;20015;-70
2024/01/10 12:28:39;;;;;;;13.60;5.63;;;6.50;42.40;;;;;;4978728;28;20062;-66
2024/01/10 12:31:07;;;;;;;11.25;6.00;;;6.50;43.10;;;;;;4978846;28;20019;-67
2024/01/10 12:33:37;;;;;;;13.50;6.13;;;6.50;43.20;;;;;;4978566;28;20035;-70
2024/01/10 12:36:11;;;;;;;15.48;6.88;;;6.50;43.50;;;;;;4978742;28;20030;-69
2024/01/10 12:38:38;;;;;;;14.82;7.30;;;6.50;43.70;;;;;;4978695;28;20429;-70
2024/01/10 12:41:04;;;;;;;14.60;6.90;;;6.40;43.60;;;;;;4978442;28;20409;-67
2024/01/10 12:43:33;;;;;;;18.13;8.38;;;6.40;43.80;;;;;;4978317;28;20433;-64
2024/01/10 12:46:12;;;;;;;11.88;5.80;;;6.30;44.30;;;;;;4978824;28;20027;-65